KAIG

Langlade County Airport

Antigo, Wisconsin, USA
METAR KAIG 220635Z AUTO 00000KT 10SM CLR M01/M02 A3036 RMK AO2 T10141025
Observed Flight Rules
Apr-22 @ 06:35 UTC (22 minutes ago) Visual Flight Rules
Visibility Clouds
10 miles
  • Clear skies
Temperatures Readings
Current -1°C / 30°F
Dewpoint -3°C / 27°F
Humidity 86%
Altimeter 30.36" Hg
Pressure 1028 hPa
Elevation 464
METAR KAIG 220635Z AUTO 00000KT 10SM CLR M01/M02 A3036 RMK AO2 T10141025
Observed Flight Rules
Apr-22 @ 06:35 UTC
(22 minutes ago)
VFR
Clouds
  • Clear skies
Temperature Dewpoint
-1°C / 30°F -3°C / 27°F
Humidity Altimeter Pressure
86% 30.36" Hg 1028 hPa